Airfield :
LOGIN :

Register | Disclaimer

   EN    FR    IT 

 










Legend :    VFR   Marginal VFR   IFR   Intensive IFR   Very Intensive IFR
Visi :
Ceiling :
>= 8 km
>= 3000ft
5 to 8 km
1000 to 3000 ft
1500m to 5 km
500 to 1000 ft
800 to 1500m
200 to 500 ft
< 800m
< 200 ft
Symbols :   Thunderstorms  Fog  Heavy snow  Heavy precipitations  Wind > 20 kt
SIGMETs :     Misc.  Thunderstorms  Icing  Turbulence  Mountain Waves  Volcanic Ashes






- Airport Elevation : 313 ft
- IATA code : LEH


LFOH - Le Havre Octeville

CURRENT METAR :
  • 192030Z AUTO 35005KT CAVOK 17/15 Q1015

EXPIRED METARs :
  • 192000Z AUTO 35008KT CAVOK 18/16 Q1015
  • 191930Z AUTO 34011KT CAVOK 18/16 Q1015
  • 191900Z AUTO 33011KT 9000 NSC 19/17 Q1015
  • 191830Z AUTO 33012KT CAVOK 20/17 Q1015
  • 191800Z AUTO 34011KT CAVOK 21/17 Q1015 NOSIG
  • 191730Z AUTO 32010KT 9999 FEW001 23/18 Q1015 NOSIG
  • 191700Z AUTO 32011KT CAVOK 23/18 Q1015 NOSIG
  • 191630Z AUTO 32011KT CAVOK 24/18 Q1015 NOSIG
  • 191600Z AUTO 31011KT CAVOK 24/18 Q1016 NOSIG

TAF TAF LFOH
Valid from the 19 at 12:00 until the 20 at 12:00 UTC


191100Z 1912/2012 30005KT CAVOK
PROB40
TEMPO 2003/2007 0500 FG VV///
ATIS : +33 2 35 54 64 93



MET'MAP, your aeronautical weather chart ! - Copyright ORBIFLY December 2007 - Disclaimer

ORBIFLY MET'MAP TEAM :

Programming & Development : Alexandra Zaïnal
Original concept : Baudouin d'Aumeries
Technical & hardware support : Manuel Goepfert
Assistance : Marc-Olivier Méhu




SOURCES & CREDITS :

   NOAA